sensor_id;sensor_type;location;lat;lon;timestamp;temperature;humidity
2897;DHT22;1458;49.728;9.228;2023-01-24T00:00:45;3.30;97.80
2897;DHT22;1458;49.728;9.228;2023-01-24T00:03:13;3.30;97.20
2897;DHT22;1458;49.728;9.228;2023-01-24T00:05:42;3.40;97.40
2897;DHT22;1458;49.728;9.228;2023-01-24T00:08:12;3.50;97.70
2897;DHT22;1458;49.728;9.228;2023-01-24T00:10:41;3.40;97.30
2897;DHT22;1458;49.728;9.228;2023-01-24T00:13:10;3.30;97.40
2897;DHT22;1458;49.728;9.228;2023-01-24T00:15:38;3.20;97.60
2897;DHT22;1458;49.728;9.228;2023-01-24T00:18:06;3.40;97.20
2897;DHT22;1458;49.728;9.228;2023-01-24T00:20:33;3.40;97.10
2897;DHT22;1458;49.728;9.228;2023-01-24T00:23:01;3.30;97.80
2897;DHT22;1458;49.728;9.228;2023-01-24T00:25:28;3.20;97.80
2897;DHT22;1458;49.728;9.228;2023-01-24T00:27:57;3.30;97.80
2897;DHT22;1458;49.728;9.228;2023-01-24T00:30:25;3.30;97.90
2897;DHT22;1458;49.728;9.228;2023-01-24T00:32:52;3.30;97.60
2897;DHT22;1458;49.728;9.228;2023-01-24T00:35:19;3.40;97.80
2897;DHT22;1458;49.728;9.228;2023-01-24T00:37:47;3.30;98.00
2897;DHT22;1458;49.728;9.228;2023-01-24T00:40:14;3.30;97.80
2897;DHT22;1458;49.728;9.228;2023-01-24T00:42:43;3.50;97.60
2897;DHT22;1458;49.728;9.228;2023-01-24T00:45:12;3.30;97.30
2897;DHT22;1458;49.728;9.228;2023-01-24T00:47:39;3.30;97.70
2897;DHT22;1458;49.728;9.228;2023-01-24T00:50:08;3.30;97.70
2897;DHT22;1458;49.728;9.228;2023-01-24T00:52:36;3.30;97.80
2897;DHT22;1458;49.728;9.228;2023-01-24T00:55:04;3.30;97.40
2897;DHT22;1458;49.728;9.228;2023-01-24T00:57:32;3.30;97.30
2897;DHT22;1458;49.728;9.228;2023-01-24T01:00:00;3.30;97.40
2897;DHT22;1458;49.728;9.228;2023-01-24T01:02:28;3.30;97.90
2897;DHT22;1458;49.728;9.228;2023-01-24T01:04:56;3.30;97.50
2897;DHT22;1458;49.728;9.228;2023-01-24T01:07:24;3.20;97.70
2897;DHT22;1458;49.728;9.228;2023-01-24T01:09:51;3.30;97.80
2897;DHT22;1458;49.728;9.228;2023-01-24T01:12:19;3.30;97.50
2897;DHT22;1458;49.728;9.228;2023-01-24T01:14:46;3.20;97.50
2897;DHT22;1458;49.728;9.228;2023-01-24T01:17:14;3.20;98.00
2897;DHT22;1458;49.728;9.228;2023-01-24T01:19:43;3.20;97.80
2897;DHT22;1458;49.728;9.228;2023-01-24T01:22:11;3.20;97.50
2897;DHT22;1458;49.728;9.228;2023-01-24T01:24:38;3.20;97.40
2897;DHT22;1458;49.728;9.228;2023-01-24T01:27:06;3.10;97.70
2897;DHT22;1458;49.728;9.228;2023-01-24T01:29:33;3.10;98.30
2897;DHT22;1458;49.728;9.228;2023-01-24T01:32:01;3.10;98.40
2897;DHT22;1458;49.728;9.228;2023-01-24T01:34:28;3.20;97.90
2897;DHT22;1458;49.728;9.228;2023-01-24T01:36:57;3.30;98.20
2897;DHT22;1458;49.728;9.228;2023-01-24T01:39:24;3.30;97.50
2897;DHT22;1458;49.728;9.228;2023-01-24T01:41:52;3.30;97.90
2897;DHT22;1458;49.728;9.228;2023-01-24T01:44:22;3.20;97.80
2897;DHT22;1458;49.728;9.228;2023-01-24T01:47:18;3.20;97.60
2897;DHT22;1458;49.728;9.228;2023-01-24T01:49:54;3.30;97.60
2897;DHT22;1458;49.728;9.228;2023-01-24T01:52:26;3.20;97.80
2897;DHT22;1458;49.728;9.228;2023-01-24T01:55:00;3.20;97.80
2897;DHT22;1458;49.728;9.228;2023-01-24T01:57:32;3.20;97.80
2897;DHT22;1458;49.728;9.228;2023-01-24T02:00:04;3.30;97.80
2897;DHT22;1458;49.728;9.228;2023-01-24T02:02:40;3.30;97.60
2897;DHT22;1458;49.728;9.228;2023-01-24T02:05:12;3.30;97.90
2897;DHT22;1458;49.728;9.228;2023-01-24T02:07:46;3.20;98.30
2897;DHT22;1458;49.728;9.228;2023-01-24T02:10:19;3.20;98.00
2897;DHT22;1458;49.728;9.228;2023-01-24T02:12:51;3.30;97.80
2897;DHT22;1458;49.728;9.228;2023-01-24T02:15:22;3.20;97.70
2897;DHT22;1458;49.728;9.228;2023-01-24T02:18:09;3.10;97.90
2897;DHT22;1458;49.728;9.228;2023-01-24T02:20:38;3.20;98.40
2897;DHT22;1458;49.728;9.228;2023-01-24T02:23:17;3.30;97.90
2897;DHT22;1458;49.728;9.228;2023-01-24T02:25:58;3.40;97.50
2897;DHT22;1458;49.728;9.228;2023-01-24T02:28:29;3.40;97.20
2897;DHT22;1458;49.728;9.228;2023-01-24T02:30:57;3.10;97.50
2897;DHT22;1458;49.728;9.228;2023-01-24T02:33:24;3.20;98.10
2897;DHT22;1458;49.728;9.228;2023-01-24T02:36:11;3.20;98.00
2897;DHT22;1458;49.728;9.228;2023-01-24T02:38:46;3.20;98.00
2897;DHT22;1458;49.728;9.228;2023-01-24T02:41:20;3.30;97.90
2897;DHT22;1458;49.728;9.228;2023-01-24T02:43:52;3.20;98.30
2897;DHT22;1458;49.728;9.228;2023-01-24T02:46:22;3.30;98.40
2897;DHT22;1458;49.728;9.228;2023-01-24T02:48:50;3.20;98.50
2897;DHT22;1458;49.728;9.228;2023-01-24T02:51:18;3.30;97.50
2897;DHT22;1458;49.728;9.228;2023-01-24T02:54:02;3.30;97.80
2897;DHT22;1458;49.728;9.228;2023-01-24T02:56:31;3.20;97.90
2897;DHT22;1458;49.728;9.228;2023-01-24T02:59:16;3.20;97.70
2897;DHT22;1458;49.728;9.228;2023-01-24T03:01:47;3.20;98.20
2897;DHT22;1458;49.728;9.228;2023-01-24T03:04:14;3.20;98.00
2897;DHT22;1458;49.728;9.228;2023-01-24T03:06:42;3.10;98.50
2897;DHT22;1458;49.728;9.228;2023-01-24T03:09:09;3.10;98.80
2897;DHT22;1458;49.728;9.228;2023-01-24T03:11:49;3.20;99.00
2897;DHT22;1458;49.728;9.228;2023-01-24T03:14:16;3.20;98.40
2897;DHT22;1458;49.728;9.228;2023-01-24T03:17:02;3.20;98.40
2897;DHT22;1458;49.728;9.228;2023-01-24T03:19:46;3.20;98.60
2897;DHT22;1458;49.728;9.228;2023-01-24T03:22:31;3.10;98.70
2897;DHT22;1458;49.728;9.228;2023-01-24T03:25:16;3.20;98.30
2897;DHT22;1458;49.728;9.228;2023-01-24T03:28:04;3.20;98.30
2897;DHT22;1458;49.728;9.228;2023-01-24T03:30:50;3.20;98.80
2897;DHT22;1458;49.728;9.228;2023-01-24T03:33:35;3.00;99.10
2897;DHT22;1458;49.728;9.228;2023-01-24T03:36:21;3.10;99.50
2897;DHT22;1458;49.728;9.228;2023-01-24T03:38:57;3.30;98.90
2897;DHT22;1458;49.728;9.228;2023-01-24T03:41:42;3.20;98.80
2897;DHT22;1458;49.728;9.228;2023-01-24T03:44:11;3.10;98.80
2897;DHT22;1458;49.728;9.228;2023-01-24T03:46:38;3.20;98.80
2897;DHT22;1458;49.728;9.228;2023-01-24T03:49:07;3.30;99.10
2897;DHT22;1458;49.728;9.228;2023-01-24T03:51:36;3.20;98.90
2897;DHT22;1458;49.728;9.228;2023-01-24T03:54:22;3.10;99.20
2897;DHT22;1458;49.728;9.228;2023-01-24T03:57:00;3.10;99.90
2897;DHT22;1458;49.728;9.228;2023-01-24T03:59:29;3.00;99.90
2897;DHT22;1458;49.728;9.228;2023-01-24T04:01:56;2.90;99.90
2897;DHT22;1458;49.728;9.228;2023-01-24T04:04:27;3.10;99.90
2897;DHT22;1458;49.728;9.228;2023-01-24T04:07:15;3.10;99.90
2897;DHT22;1458;49.728;9.228;2023-01-24T04:09:42;3.20;99.90
2897;DHT22;1458;49.728;9.228;2023-01-24T04:12:10;3.20;99.90
2897;DHT22;1458;49.728;9.228;2023-01-24T04:14:38;3.10;99.90
2897;DHT22;1458;49.728;9.228;2023-01-24T04:17:11;3.00;99.90
2897;DHT22;1458;49.728;9.228;2023-01-24T04:19:48;3.00;99.90
2897;DHT22;1458;49.728;9.228;2023-01-24T04:22:16;2.90;99.90
2897;DHT22;1458;49.728;9.228;2023-01-24T04:24:44;2.90;99.90
2897;DHT22;1458;49.728;9.228;2023-01-24T04:27:13;3.00;99.90
2897;DHT22;1458;49.728;9.228;2023-01-24T04:30:00;3.10;99.90
2897;DHT22;1458;49.728;9.228;2023-01-24T04:32:30;3.00;99.90
2897;DHT22;1458;49.728;9.228;2023-01-24T04:35:02;3.10;99.90
2897;DHT22;1458;49.728;9.228;2023-01-24T04:38:00;3.00;99.90
2897;DHT22;1458;49.728;9.228;2023-01-24T04:40:59;3.00;99.90
2897;DHT22;1458;49.728;9.228;2023-01-24T04:43:31;3.10;99.90
2897;DHT22;1458;49.728;9.228;2023-01-24T04:45:59;3.20;99.90
2897;DHT22;1458;49.728;9.228;2023-01-24T04:48:42;3.10;99.90
2897;DHT22;1458;49.728;9.228;2023-01-24T04:51:09;3.00;99.90
2897;DHT22;1458;49.728;9.228;2023-01-24T04:53:38;3.00;99.90
2897;DHT22;1458;49.728;9.228;2023-01-24T04:56:07;2.90;99.90
2897;DHT22;1458;49.728;9.228;2023-01-24T04:58:35;2.90;99.90
2897;DHT22;1458;49.728;9.228;2023-01-24T05:01:05;2.90;99.90
2897;DHT22;1458;49.728;9.228;2023-01-24T05:03:37;3.00;99.90
2897;DHT22;1458;49.728;9.228;2023-01-24T05:06:05;3.10;99.90
2897;DHT22;1458;49.728;9.228;2023-01-24T05:08:34;3.00;99.90
2897;DHT22;1458;49.728;9.228;2023-01-24T05:11:03;3.00;99.90
2897;DHT22;1458;49.728;9.228;2023-01-24T05:13:35;3.10;99.90
2897;DHT22;1458;49.728;9.228;2023-01-24T05:16:04;3.20;99.90
2897;DHT22;1458;49.728;9.228;2023-01-24T05:18:32;3.10;99.90
2897;DHT22;1458;49.728;9.228;2023-01-24T05:21:05;3.00;99.90
2897;DHT22;1458;49.728;9.228;2023-01-24T05:23:32;3.00;99.90
2897;DHT22;1458;49.728;9.228;2023-01-24T05:26:00;3.00;99.90
2897;DHT22;1458;49.728;9.228;2023-01-24T05:28:29;3.00;99.90
2897;DHT22;1458;49.728;9.228;2023-01-24T05:30:58;3.10;99.90
2897;DHT22;1458;49.728;9.228;2023-01-24T05:33:30;3.00;99.90
2897;DHT22;1458;49.728;9.228;2023-01-24T05:35:58;3.00;99.90
2897;DHT22;1458;49.728;9.228;2023-01-24T05:38:26;3.10;99.90
2897;DHT22;1458;49.728;9.228;2023-01-24T05:40:57;3.00;99.90
2897;DHT22;1458;49.728;9.228;2023-01-24T05:43:25;2.90;99.90
2897;DHT22;1458;49.728;9.228;2023-01-24T05:45:57;2.80;99.90
2897;DHT22;1458;49.728;9.228;2023-01-24T05:48:26;2.90;99.90
2897;DHT22;1458;49.728;9.228;2023-01-24T05:50:58;3.00;99.90
2897;DHT22;1458;49.728;9.228;2023-01-24T05:53:27;3.10;99.90
2897;DHT22;1458;49.728;9.228;2023-01-24T05:55:55;3.10;99.90
2897;DHT22;1458;49.728;9.228;2023-01-24T05:58:24;3.00;99.90
2897;DHT22;1458;49.728;9.228;2023-01-24T06:01:06;3.00;99.90
2897;DHT22;1458;49.728;9.228;2023-01-24T06:03:39;3.10;99.90
2897;DHT22;1458;49.728;9.228;2023-01-24T06:06:10;3.00;99.90
2897;DHT22;1458;49.728;9.228;2023-01-24T06:08:39;3.00;99.90
2897;DHT22;1458;49.728;9.228;2023-01-24T06:11:09;2.90;99.90
2897;DHT22;1458;49.728;9.228;2023-01-24T06:13:39;2.90;99.90
2897;DHT22;1458;49.728;9.228;2023-01-24T06:16:10;3.00;99.90
2897;DHT22;1458;49.728;9.228;2023-01-24T06:18:39;3.10;99.90
2897;DHT22;1458;49.728;9.228;2023-01-24T06:21:13;3.10;99.90
2897;DHT22;1458;49.728;9.228;2023-01-24T06:23:44;3.10;99.90
2897;DHT22;1458;49.728;9.228;2023-01-24T06:26:12;3.20;99.90
2897;DHT22;1458;49.728;9.228;2023-01-24T06:28:41;3.10;99.90
2897;DHT22;1458;49.728;9.228;2023-01-24T06:31:18;3.00;99.90
2897;DHT22;1458;49.728;9.228;2023-01-24T06:34:00;3.00;99.90
2897;DHT22;1458;49.728;9.228;2023-01-24T06:36:48;3.00;99.90
2897;DHT22;1458;49.728;9.228;2023-01-24T06:39:21;3.10;99.90
2897;DHT22;1458;49.728;9.228;2023-01-24T06:41:49;3.00;99.90
2897;DHT22;1458;49.728;9.228;2023-01-24T06:44:18;2.90;99.90
2897;DHT22;1458;49.728;9.228;2023-01-24T06:46:46;2.90;99.90
2897;DHT22;1458;49.728;9.228;2023-01-24T06:49:14;2.90;99.90
2897;DHT22;1458;49.728;9.228;2023-01-24T06:51:48;2.90;99.90
2897;DHT22;1458;49.728;9.228;2023-01-24T06:54:17;3.00;99.90
2897;DHT22;1458;49.728;9.228;2023-01-24T06:56:44;2.90;99.90
2897;DHT22;1458;49.728;9.228;2023-01-24T06:59:11;3.00;99.90
2897;DHT22;1458;49.728;9.228;2023-01-24T07:01:39;3.00;99.90
2897;DHT22;1458;49.728;9.228;2023-01-24T07:04:06;3.20;99.90
2897;DHT22;1458;49.728;9.228;2023-01-24T07:06:33;3.10;99.90
2897;DHT22;1458;49.728;9.228;2023-01-24T07:09:02;3.10;99.90
2897;DHT22;1458;49.728;9.228;2023-01-24T07:11:29;3.00;99.90
2897;DHT22;1458;49.728;9.228;2023-01-24T07:13:57;3.00;99.90
2897;DHT22;1458;49.728;9.228;2023-01-24T07:16:24;3.00;99.90
2897;DHT22;1458;49.728;9.228;2023-01-24T07:18:52;3.10;99.90
2897;DHT22;1458;49.728;9.228;2023-01-24T07:21:20;3.00;99.90
2897;DHT22;1458;49.728;9.228;2023-01-24T07:23:49;3.00;99.90
2897;DHT22;1458;49.728;9.228;2023-01-24T07:26:19;2.90;99.90
2897;DHT22;1458;49.728;9.228;2023-01-24T07:28:47;3.20;99.90
2897;DHT22;1458;49.728;9.228;2023-01-24T07:31:15;3.00;99.90
2897;DHT22;1458;49.728;9.228;2023-01-24T07:33:42;3.00;99.90
2897;DHT22;1458;49.728;9.228;2023-01-24T07:36:14;3.10;99.90
2897;DHT22;1458;49.728;9.228;2023-01-24T07:38:42;3.10;99.90
2897;DHT22;1458;49.728;9.228;2023-01-24T07:41:10;3.10;99.90
2897;DHT22;1458;49.728;9.228;2023-01-24T07:43:40;3.10;99.90
2897;DHT22;1458;49.728;9.228;2023-01-24T07:46:07;3.10;99.90
2897;DHT22;1458;49.728;9.228;2023-01-24T07:48:34;3.00;99.90
2897;DHT22;1458;49.728;9.228;2023-01-24T07:51:02;3.10;99.90
2897;DHT22;1458;49.728;9.228;2023-01-24T07:53:29;3.10;99.90
2897;DHT22;1458;49.728;9.228;2023-01-24T07:55:58;3.20;99.90
2897;DHT22;1458;49.728;9.228;2023-01-24T07:58:26;3.20;99.90
2897;DHT22;1458;49.728;9.228;2023-01-24T08:00:55;3.20;99.90
2897;DHT22;1458;49.728;9.228;2023-01-24T08:03:23;3.20;99.90
2897;DHT22;1458;49.728;9.228;2023-01-24T08:05:50;3.10;99.90
2897;DHT22;1458;49.728;9.228;2023-01-24T08:08:17;3.30;99.90
2897;DHT22;1458;49.728;9.228;2023-01-24T08:10:45;3.30;99.90
2897;DHT22;1458;49.728;9.228;2023-01-24T08:13:12;3.30;99.90
2897;DHT22;1458;49.728;9.228;2023-01-24T08:15:39;3.20;99.90
2897;DHT22;1458;49.728;9.228;2023-01-24T08:18:08;3.40;99.90
2897;DHT22;1458;49.728;9.228;2023-01-24T08:20:35;3.50;99.90
2897;DHT22;1458;49.728;9.228;2023-01-24T08:23:03;3.50;99.90
2897;DHT22;1458;49.728;9.228;2023-01-24T08:25:30;3.40;99.90
2897;DHT22;1458;49.728;9.228;2023-01-24T08:27:59;3.40;99.90
2897;DHT22;1458;49.728;9.228;2023-01-24T08:30:27;3.40;99.90
2897;DHT22;1458;49.728;9.228;2023-01-24T08:33:04;3.40;99.90
2897;DHT22;1458;49.728;9.228;2023-01-24T08:35:33;3.30;99.90
2897;DHT22;1458;49.728;9.228;2023-01-24T08:38:01;3.20;99.90
2897;DHT22;1458;49.728;9.228;2023-01-24T08:40:28;3.30;99.90
2897;DHT22;1458;49.728;9.228;2023-01-24T08:42:59;3.30;99.90
2897;DHT22;1458;49.728;9.228;2023-01-24T08:45:27;3.30;99.90
2897;DHT22;1458;49.728;9.228;2023-01-24T08:47:54;3.20;99.90
2897;DHT22;1458;49.728;9.228;2023-01-24T08:50:22;3.40;99.90
2897;DHT22;1458;49.728;9.228;2023-01-24T08:52:53;3.30;99.90
2897;DHT22;1458;49.728;9.228;2023-01-24T08:55:21;3.40;99.90
2897;DHT22;1458;49.728;9.228;2023-01-24T08:57:49;3.40;99.90
2897;DHT22;1458;49.728;9.228;2023-01-24T09:00:20;3.30;99.90
2897;DHT22;1458;49.728;9.228;2023-01-24T09:02:50;3.30;99.90
2897;DHT22;1458;49.728;9.228;2023-01-24T09:05:20;3.50;99.90
2897;DHT22;1458;49.728;9.228;2023-01-24T09:07:47;3.40;99.90
2897;DHT22;1458;49.728;9.228;2023-01-24T09:10:16;3.50;99.90
2897;DHT22;1458;49.728;9.228;2023-01-24T09:12:43;3.30;99.90
2897;DHT22;1458;49.728;9.228;2023-01-24T09:15:11;3.40;99.90
2897;DHT22;1458;49.728;9.228;2023-01-24T09:17:38;3.40;99.90
2897;DHT22;1458;49.728;9.228;2023-01-24T09:20:06;3.40;99.90
2897;DHT22;1458;49.728;9.228;2023-01-24T09:22:35;3.40;99.90
2897;DHT22;1458;49.728;9.228;2023-01-24T09:25:02;3.40;99.90
2897;DHT22;1458;49.728;9.228;2023-01-24T09:27:32;3.40;99.90
2897;DHT22;1458;49.728;9.228;2023-01-24T09:29:59;3.40;99.90
2897;DHT22;1458;49.728;9.228;2023-01-24T09:32:27;3.40;99.90
2897;DHT22;1458;49.728;9.228;2023-01-24T09:34:54;3.40;99.90
2897;DHT22;1458;49.728;9.228;2023-01-24T09:37:22;3.30;99.90
2897;DHT22;1458;49.728;9.228;2023-01-24T09:39:49;3.30;99.90
2897;DHT22;1458;49.728;9.228;2023-01-24T09:42:27;3.40;99.90
2897;DHT22;1458;49.728;9.228;2023-01-24T09:45:12;3.70;99.90
2897;DHT22;1458;49.728;9.228;2023-01-24T09:47:45;3.50;99.90
2897;DHT22;1458;49.728;9.228;2023-01-24T09:50:16;3.60;99.90
2897;DHT22;1458;49.728;9.228;2023-01-24T09:52:48;3.40;99.90
2897;DHT22;1458;49.728;9.228;2023-01-24T09:55:21;3.30;99.90
2897;DHT22;1458;49.728;9.228;2023-01-24T09:57:55;3.60;99.90
2897;DHT22;1458;49.728;9.228;2023-01-24T10:00:26;3.70;99.90
2897;DHT22;1458;49.728;9.228;2023-01-24T10:02:57;3.60;99.90
2897;DHT22;1458;49.728;9.228;2023-01-24T10:05:31;3.60;99.90
2897;DHT22;1458;49.728;9.228;2023-01-24T10:08:09;3.60;99.90
2897;DHT22;1458;49.728;9.228;2023-01-24T10:10:45;3.70;99.90
2897;DHT22;1458;49.728;9.228;2023-01-24T10:13:43;3.60;99.90
2897;DHT22;1458;49.728;9.228;2023-01-24T10:16:45;3.60;99.90
2897;DHT22;1458;49.728;9.228;2023-01-24T10:19:36;3.70;99.90
2897;DHT22;1458;49.728;9.228;2023-01-24T10:22:21;3.70;99.90
2897;DHT22;1458;49.728;9.228;2023-01-24T10:25:00;3.40;99.90
2897;DHT22;1458;49.728;9.228;2023-01-24T10:27:34;3.60;99.90
2897;DHT22;1458;49.728;9.228;2023-01-24T10:30:13;3.60;99.90
2897;DHT22;1458;49.728;9.228;2023-01-24T10:32:43;3.70;99.90
2897;DHT22;1458;49.728;9.228;2023-01-24T10:35:14;3.50;99.90
2897;DHT22;1458;49.728;9.228;2023-01-24T10:37:47;3.40;99.90
2897;DHT22;1458;49.728;9.228;2023-01-24T10:40:23;3.60;99.90
2897;DHT22;1458;49.728;9.228;2023-01-24T10:42:51;3.70;99.90
2897;DHT22;1458;49.728;9.228;2023-01-24T10:45:32;3.90;99.90
2897;DHT22;1458;49.728;9.228;2023-01-24T10:48:12;3.90;99.50
2897;DHT22;1458;49.728;9.228;2023-01-24T10:50:50;3.60;99.60
2897;DHT22;1458;49.728;9.228;2023-01-24T10:53:23;3.60;99.90
2897;DHT22;1458;49.728;9.228;2023-01-24T10:55:57;3.70;99.90
2897;DHT22;1458;49.728;9.228;2023-01-24T10:58:27;3.80;99.90
2897;DHT22;1458;49.728;9.228;2023-01-24T11:00:57;3.90;99.10
2897;DHT22;1458;49.728;9.228;2023-01-24T11:03:27;3.80;98.90
2897;DHT22;1458;49.728;9.228;2023-01-24T11:05:57;3.70;99.30
2897;DHT22;1458;49.728;9.228;2023-01-24T11:08:26;3.80;99.40
2897;DHT22;1458;49.728;9.228;2023-01-24T11:11:00;3.90;97.90
2897;DHT22;1458;49.728;9.228;2023-01-24T11:13:34;3.90;98.00
2897;DHT22;1458;49.728;9.228;2023-01-24T11:16:06;3.70;98.60
2897;DHT22;1458;49.728;9.228;2023-01-24T11:18:47;3.70;98.50
2897;DHT22;1458;49.728;9.228;2023-01-24T11:21:18;3.80;98.50
2897;DHT22;1458;49.728;9.228;2023-01-24T11:23:59;3.80;98.30
2897;DHT22;1458;49.728;9.228;2023-01-24T11:26:37;3.90;98.40
2897;DHT22;1458;49.728;9.228;2023-01-24T11:29:15;3.90;98.50
2897;DHT22;1458;49.728;9.228;2023-01-24T11:31:47;4.00;97.70
2897;DHT22;1458;49.728;9.228;2023-01-24T11:34:49;4.00;97.30
2897;DHT22;1458;49.728;9.228;2023-01-24T11:37:35;3.80;97.90
2897;DHT22;1458;49.728;9.228;2023-01-24T11:40:31;3.80;97.90
2897;DHT22;1458;49.728;9.228;2023-01-24T11:43:19;3.60;98.20
2897;DHT22;1458;49.728;9.228;2023-01-24T11:46:16;3.70;98.10
2897;DHT22;1458;49.728;9.228;2023-01-24T11:48:53;3.80;98.00
2897;DHT22;1458;49.728;9.228;2023-01-24T11:51:33;3.80;98.00
2897;DHT22;1458;49.728;9.228;2023-01-24T11:57:14;3.90;97.90
2897;DHT22;1458;49.728;9.228;2023-01-24T12:06:19;4.00;97.40
2897;DHT22;1458;49.728;9.228;2023-01-24T12:09:06;3.60;97.20
2897;DHT22;1458;49.728;9.228;2023-01-24T12:11:42;3.70;98.20
2897;DHT22;1458;49.728;9.228;2023-01-24T12:17:26;3.70;97.80
2897;DHT22;1458;49.728;9.228;2023-01-24T12:20:23;3.90;97.30
2897;DHT22;1458;49.728;9.228;2023-01-24T12:23:02;4.10;97.10
2897;DHT22;1458;49.728;9.228;2023-01-24T12:25:38;4.00;96.60
2897;DHT22;1458;49.728;9.228;2023-01-24T12:28:13;3.90;96.90
2897;DHT22;1458;49.728;9.228;2023-01-24T12:30:47;3.80;97.50
2897;DHT22;1458;49.728;9.228;2023-01-24T12:33:22;3.80;97.60
2897;DHT22;1458;49.728;9.228;2023-01-24T12:35:55;3.90;97.30
2897;DHT22;1458;49.728;9.228;2023-01-24T12:38:32;3.80;97.00
2897;DHT22;1458;49.728;9.228;2023-01-24T12:41:11;3.90;97.80
2897;DHT22;1458;49.728;9.228;2023-01-24T12:43:52;4.00;97.10
2897;DHT22;1458;49.728;9.228;2023-01-24T12:46:27;3.90;97.20
2897;DHT22;1458;49.728;9.228;2023-01-24T12:49:06;3.90;97.20
2897;DHT22;1458;49.728;9.228;2023-01-24T12:51:41;4.00;97.10
2897;DHT22;1458;49.728;9.228;2023-01-24T12:54:14;3.90;97.80
2897;DHT22;1458;49.728;9.228;2023-01-24T12:56:50;4.10;97.80
2897;DHT22;1458;49.728;9.228;2023-01-24T12:59:24;3.90;97.10
2897;DHT22;1458;49.728;9.228;2023-01-24T13:02:35;3.80;97.30
2897;DHT22;1458;49.728;9.228;2023-01-24T13:05:20;3.70;97.80
2897;DHT22;1458;49.728;9.228;2023-01-24T13:08:04;3.70;97.90
2897;DHT22;1458;49.728;9.228;2023-01-24T13:10:48;3.80;98.00
2897;DHT22;1458;49.728;9.228;2023-01-24T13:13:24;4.10;97.50
2897;DHT22;1458;49.728;9.228;2023-01-24T13:16:03;4.00;96.40
2897;DHT22;1458;49.728;9.228;2023-01-24T13:18:55;4.10;96.90
2897;DHT22;1458;49.728;9.228;2023-01-24T13:21:31;4.00;97.00
2897;DHT22;1458;49.728;9.228;2023-01-24T13:24:17;4.00;96.90
2897;DHT22;1458;49.728;9.228;2023-01-24T13:27:12;3.90;97.00
2897;DHT22;1458;49.728;9.228;2023-01-24T13:29:59;3.90;97.30
2897;DHT22;1458;49.728;9.228;2023-01-24T13:32:42;4.00;97.10
2897;DHT22;1458;49.728;9.228;2023-01-24T13:35:16;4.00;97.10
2897;DHT22;1458;49.728;9.228;2023-01-24T13:37:50;4.00;97.40
2897;DHT22;1458;49.728;9.228;2023-01-24T13:40:26;4.00;97.30
2897;DHT22;1458;49.728;9.228;2023-01-24T13:42:57;4.00;97.10
2897;DHT22;1458;49.728;9.228;2023-01-24T13:45:46;4.00;97.40
2897;DHT22;1458;49.728;9.228;2023-01-24T13:48:44;3.90;97.90
2897;DHT22;1458;49.728;9.228;2023-01-24T13:54:21;4.00;97.40
2897;DHT22;1458;49.728;9.228;2023-01-24T13:57:24;3.90;97.30
2897;DHT22;1458;49.728;9.228;2023-01-24T14:00:18;3.90;97.90
2897;DHT22;1458;49.728;9.228;2023-01-24T14:03:01;3.90;98.20
2897;DHT22;1458;49.728;9.228;2023-01-24T14:05:50;3.90;98.00
2897;DHT22;1458;49.728;9.228;2023-01-24T14:08:43;3.90;98.10
2897;DHT22;1458;49.728;9.228;2023-01-24T14:11:37;3.80;98.30
2897;DHT22;1458;49.728;9.228;2023-01-24T14:14:31;3.70;99.00
2897;DHT22;1458;49.728;9.228;2023-01-24T14:20:35;3.70;98.60
2897;DHT22;1458;49.728;9.228;2023-01-24T14:23:13;3.80;99.50
2897;DHT22;1458;49.728;9.228;2023-01-24T14:25:51;3.80;99.50
2897;DHT22;1458;49.728;9.228;2023-01-24T14:28:32;3.90;99.10
2897;DHT22;1458;49.728;9.228;2023-01-24T14:31:12;3.70;99.20
2897;DHT22;1458;49.728;9.228;2023-01-24T14:33:48;3.60;99.70
2897;DHT22;1458;49.728;9.228;2023-01-24T14:36:29;3.60;99.90
2897;DHT22;1458;49.728;9.228;2023-01-24T14:39:19;3.60;99.80
2897;DHT22;1458;49.728;9.228;2023-01-24T14:41:48;3.50;99.90
2897;DHT22;1458;49.728;9.228;2023-01-24T14:44:20;3.50;99.90
2897;DHT22;1458;49.728;9.228;2023-01-24T14:46:54;3.60;99.90
2897;DHT22;1458;49.728;9.228;2023-01-24T14:49:31;3.70;99.90
2897;DHT22;1458;49.728;9.228;2023-01-24T14:52:02;3.70;99.90
2897;DHT22;1458;49.728;9.228;2023-01-24T14:54:43;3.60;99.90
2897;DHT22;1458;49.728;9.228;2023-01-24T14:57:19;3.60;99.90
2897;DHT22;1458;49.728;9.228;2023-01-24T15:00:03;3.60;99.90
2897;DHT22;1458;49.728;9.228;2023-01-24T15:02:32;3.40;99.90
2897;DHT22;1458;49.728;9.228;2023-01-24T15:05:01;3.60;99.90
2897;DHT22;1458;49.728;9.228;2023-01-24T15:07:29;3.40;99.90
2897;DHT22;1458;49.728;9.228;2023-01-24T15:09:56;3.40;99.90
2897;DHT22;1458;49.728;9.228;2023-01-24T15:12:28;3.40;99.90
2897;DHT22;1458;49.728;9.228;2023-01-24T15:14:57;3.50;99.90
2897;DHT22;1458;49.728;9.228;2023-01-24T15:17:28;3.40;99.90
2897;DHT22;1458;49.728;9.228;2023-01-24T15:19:58;3.70;99.90
2897;DHT22;1458;49.728;9.228;2023-01-24T15:22:29;3.60;99.90
2897;DHT22;1458;49.728;9.228;2023-01-24T15:24:59;3.60;99.90
2897;DHT22;1458;49.728;9.228;2023-01-24T15:27:39;3.50;99.90
2897;DHT22;1458;49.728;9.228;2023-01-24T15:30:17;3.50;99.90
2897;DHT22;1458;49.728;9.228;2023-01-24T15:32:46;3.40;99.90
2897;DHT22;1458;49.728;9.228;2023-01-24T15:35:31;3.30;99.90
2897;DHT22;1458;49.728;9.228;2023-01-24T15:38:21;3.30;99.90
2897;DHT22;1458;49.728;9.228;2023-01-24T15:43:55;3.50;99.90
2897;DHT22;1458;49.728;9.228;2023-01-24T15:46:29;3.50;99.90
2897;DHT22;1458;49.728;9.228;2023-01-24T15:49:27;3.50;99.90
2897;DHT22;1458;49.728;9.228;2023-01-24T15:52:18;3.40;99.90
2897;DHT22;1458;49.728;9.228;2023-01-24T15:54:50;3.30;99.90
2897;DHT22;1458;49.728;9.228;2023-01-24T15:57:25;3.30;99.90
2897;DHT22;1458;49.728;9.228;2023-01-24T15:59:55;3.20;99.90
2897;DHT22;1458;49.728;9.228;2023-01-24T16:02:25;3.20;99.90
2897;DHT22;1458;49.728;9.228;2023-01-24T16:04:53;3.30;99.90
2897;DHT22;1458;49.728;9.228;2023-01-24T16:07:21;3.30;99.90
2897;DHT22;1458;49.728;9.228;2023-01-24T16:09:50;3.20;99.90
2897;DHT22;1458;49.728;9.228;2023-01-24T16:12:21;3.10;99.90
2897;DHT22;1458;49.728;9.228;2023-01-24T16:14:51;3.20;99.90
2897;DHT22;1458;49.728;9.228;2023-01-24T16:17:20;3.20;99.90
2897;DHT22;1458;49.728;9.228;2023-01-24T16:19:48;3.20;99.90
2897;DHT22;1458;49.728;9.228;2023-01-24T16:22:16;3.20;99.90
2897;DHT22;1458;49.728;9.228;2023-01-24T16:24:44;3.20;99.90
2897;DHT22;1458;49.728;9.228;2023-01-24T16:27:14;3.30;99.90
2897;DHT22;1458;49.728;9.228;2023-01-24T16:29:42;3.20;99.90
2897;DHT22;1458;49.728;9.228;2023-01-24T16:32:19;3.10;99.90
2897;DHT22;1458;49.728;9.228;2023-01-24T16:34:48;3.20;99.90
2897;DHT22;1458;49.728;9.228;2023-01-24T16:37:16;3.30;99.90
2897;DHT22;1458;49.728;9.228;2023-01-24T16:39:45;3.20;99.90
2897;DHT22;1458;49.728;9.228;2023-01-24T16:42:16;3.20;99.90
2897;DHT22;1458;49.728;9.228;2023-01-24T16:44:53;3.40;99.90
2897;DHT22;1458;49.728;9.228;2023-01-24T16:47:22;3.20;99.90
2897;DHT22;1458;49.728;9.228;2023-01-24T16:49:51;3.20;99.90
2897;DHT22;1458;49.728;9.228;2023-01-24T16:52:19;3.20;99.90
2897;DHT22;1458;49.728;9.228;2023-01-24T16:54:47;3.20;99.90
2897;DHT22;1458;49.728;9.228;2023-01-24T16:57:17;3.20;99.90
2897;DHT22;1458;49.728;9.228;2023-01-24T16:59:44;3.20;99.90
2897;DHT22;1458;49.728;9.228;2023-01-24T17:02:13;3.30;99.90
2897;DHT22;1458;49.728;9.228;2023-01-24T17:04:40;3.30;99.90
2897;DHT22;1458;49.728;9.228;2023-01-24T17:07:07;3.20;99.90
2897;DHT22;1458;49.728;9.228;2023-01-24T17:09:35;3.20;99.90
2897;DHT22;1458;49.728;9.228;2023-01-24T17:12:03;3.20;99.90
2897;DHT22;1458;49.728;9.228;2023-01-24T17:14:33;3.20;99.90
2897;DHT22;1458;49.728;9.228;2023-01-24T17:17:00;3.30;99.90
2897;DHT22;1458;49.728;9.228;2023-01-24T17:19:28;3.20;99.90